Time,TemperatureF,DewpointF,PressureIn,WindDirection,WindDirectionDegrees,WindSpeedMPH,WindSpeedGustMPH,Humidity,HourlyPrecipIn,Conditions,Clouds,dailyrainin,SoftwareType,DateUTC
2014-12-25 00:22:00,28.0,26.0,-100.00,North,-999,-999.0,-999.0,91,0.00,,,0.00,,2014-12-25 06:22:00,
2014-12-25 00:52:00,28.0,26.0,-100.00,North,-999,-999.0,-999.0,91,0.00,,,0.00,,2014-12-25 06:52:00,
2014-12-25 01:23:00,28.0,26.0,-100.00,North,-999,-999.0,-999.0,92,0.00,,,0.00,,2014-12-25 07:23:00,
2014-12-25 01:52:00,29.0,26.0,-100.00,North,-999,-999.0,-999.0,86,0.00,,,0.00,,2014-12-25 07:52:00,
2014-12-25 02:22:00,29.0,26.0,-100.00,North,-999,-999.0,-999.0,89,0.00,,,0.00,,2014-12-25 08:22:00,
2014-12-25 02:52:00,28.0,26.0,-100.00,North,-999,-999.0,-999.0,91,0.00,,,0.00,,2014-12-25 08:52:00,
2014-12-25 03:22:00,28.0,25.0,-100.00,North,-999,-999.0,-999.0,91,0.00,,,0.00,,2014-12-25 09:22:00,
2014-12-25 03:53:00,28.0,25.0,-100.00,North,-999,-999.0,-999.0,90,0.00,,,0.00,,2014-12-25 09:53:00,
2014-12-25 04:23:00,28.0,26.0,-100.00,North,-999,-999.0,-999.0,90,0.00,,,0.00,,2014-12-25 10:23:00,
2014-12-25 04:53:00,27.0,25.0,-100.00,North,-999,-999.0,-999.0,91,0.00,,,0.00,,2014-12-25 10:53:00,
2014-12-25 05:22:00,27.0,25.0,-100.00,North,-999,-999.0,-999.0,92,0.00,,,0.00,,2014-12-25 11:22:00,
2014-12-25 05:52:00,26.0,24.0,-100.00,North,-999,-999.0,-999.0,93,0.00,,,0.00,,2014-12-25 11:52:00,
2014-12-25 06:22:00,27.0,26.0,-100.00,North,-999,-999.0,-999.0,94,0.00,,,0.00,,2014-12-25 12:22:00,
2014-12-25 06:52:00,26.0,24.0,-100.00,North,-999,-999.0,-999.0,94,0.00,,,0.00,,2014-12-25 12:52:00,
2014-12-25 07:22:00,30.0,25.0,-100.00,North,-999,-999.0,-999.0,83,0.00,,,0.00,,2014-12-25 13:22:00,
2014-12-25 07:52:00,29.0,25.0,-100.00,North,-999,-999.0,-999.0,85,0.00,,,0.00,,2014-12-25 13:52:00,
2014-12-25 08:22:00,31.0,26.0,-100.00,North,-999,-999.0,-999.0,82,0.00,,,0.00,,2014-12-25 14:22:00,
2014-12-25 08:52:00,40.0,26.0,-100.00,North,-999,-999.0,-999.0,58,0.00,,,0.00,,2014-12-25 14:52:00,
2014-12-25 09:22:00,45.0,25.0,-100.00,North,-999,-999.0,-999.0,45,-99.99,,,0.00,,2014-12-25 15:22:00,
2014-12-25 09:53:00,50.0,25.0,-100.00,North,-999,-999.0,-999.0,38,0.00,,,0.00,,2014-12-25 15:53:00,
2014-12-25 10:23:00,51.0,25.0,-100.00,North,-999,-999.0,-999.0,36,0.00,,,0.00,,2014-12-25 16:23:00,
2014-12-25 10:53:00,54.0,24.0,-100.00,North,-999,-999.0,-999.0,31,0.00,,,0.00,,2014-12-25 16:53:00,
2014-12-25 11:23:00,55.0,23.0,-100.00,North,-999,-999.0,-999.0,29,0.00,,,0.00,,2014-12-25 17:23:00,